sensor_id;sensor_type;location;lat;lon;timestamp;temperature;humidity
23873;DHT22;42884;50.718;4.630;2023-04-03T00:01:55;2.90;99.90
23873;DHT22;42884;50.718;4.630;2023-04-03T00:04:20;2.90;99.90
23873;DHT22;42884;50.718;4.630;2023-04-03T00:06:46;2.80;99.90
23873;DHT22;42884;50.718;4.630;2023-04-03T00:09:11;2.80;99.90
23873;DHT22;42884;50.718;4.630;2023-04-03T00:11:37;2.80;99.90
23873;DHT22;42884;50.718;4.630;2023-04-03T00:14:03;2.70;99.90
23873;DHT22;42884;50.718;4.630;2023-04-03T00:16:28;2.70;99.90
23873;DHT22;42884;50.718;4.630;2023-04-03T00:18:54;2.70;99.90
23873;DHT22;42884;50.718;4.630;2023-04-03T00:21:19;2.70;99.90
23873;DHT22;42884;50.718;4.630;2023-04-03T00:23:45;2.70;99.90
23873;DHT22;42884;50.718;4.630;2023-04-03T00:26:11;2.70;99.90
23873;DHT22;42884;50.718;4.630;2023-04-03T00:28:36;2.50;99.90
23873;DHT22;42884;50.718;4.630;2023-04-03T00:31:02;2.50;99.90
23873;DHT22;42884;50.718;4.630;2023-04-03T00:33:28;2.50;99.90
23873;DHT22;42884;50.718;4.630;2023-04-03T00:35:53;2.50;99.90
23873;DHT22;42884;50.718;4.630;2023-04-03T00:38:19;2.50;99.90
23873;DHT22;42884;50.718;4.630;2023-04-03T00:40:45;2.50;99.90
23873;DHT22;42884;50.718;4.630;2023-04-03T00:43:12;2.50;99.90
23873;DHT22;42884;50.718;4.630;2023-04-03T00:45:39;2.40;99.90
23873;DHT22;42884;50.718;4.630;2023-04-03T00:48:07;2.40;99.90
23873;DHT22;42884;50.718;4.630;2023-04-03T00:50:34;2.30;99.90
23873;DHT22;42884;50.718;4.630;2023-04-03T00:53:00;2.30;99.90
23873;DHT22;42884;50.718;4.630;2023-04-03T00:55:26;2.30;99.90
23873;DHT22;42884;50.718;4.630;2023-04-03T00:57:52;2.40;99.90
23873;DHT22;42884;50.718;4.630;2023-04-03T01:00:19;2.30;99.90
23873;DHT22;42884;50.718;4.630;2023-04-03T01:02:44;2.30;99.90
23873;DHT22;42884;50.718;4.630;2023-04-03T01:05:10;2.30;99.90
23873;DHT22;42884;50.718;4.630;2023-04-03T01:07:36;2.30;99.90
23873;DHT22;42884;50.718;4.630;2023-04-03T01:10:04;2.20;99.90
23873;DHT22;42884;50.718;4.630;2023-04-03T01:12:34;2.20;99.90
23873;DHT22;42884;50.718;4.630;2023-04-03T01:15:05;2.20;99.90
23873;DHT22;42884;50.718;4.630;2023-04-03T01:17:35;2.20;99.90
23873;DHT22;42884;50.718;4.630;2023-04-03T01:22:40;2.10;99.90
23873;DHT22;42884;50.718;4.630;2023-04-03T01:25:06;2.20;99.90
23873;DHT22;42884;50.718;4.630;2023-04-03T01:27:32;2.20;99.90
23873;DHT22;42884;50.718;4.630;2023-04-03T01:29:57;2.20;99.90
23873;DHT22;42884;50.718;4.630;2023-04-03T01:32:23;2.20;99.90
23873;DHT22;42884;50.718;4.630;2023-04-03T01:34:49;2.10;99.90
23873;DHT22;42884;50.718;4.630;2023-04-03T01:37:14;2.10;99.90
23873;DHT22;42884;50.718;4.630;2023-04-03T01:39:40;2.10;99.90
23873;DHT22;42884;50.718;4.630;2023-04-03T01:42:05;2.00;99.90
23873;DHT22;42884;50.718;4.630;2023-04-03T01:44:31;2.00;99.90
23873;DHT22;42884;50.718;4.630;2023-04-03T01:46:57;2.00;99.90
23873;DHT22;42884;50.718;4.630;2023-04-03T01:49:22;2.00;99.90
23873;DHT22;42884;50.718;4.630;2023-04-03T01:51:48;2.00;99.90
23873;DHT22;42884;50.718;4.630;2023-04-03T01:54:13;2.00;99.90
23873;DHT22;42884;50.718;4.630;2023-04-03T01:56:39;2.00;99.90
23873;DHT22;42884;50.718;4.630;2023-04-03T01:59:05;1.90;99.90
23873;DHT22;42884;50.718;4.630;2023-04-03T02:01:30;1.90;99.90
23873;DHT22;42884;50.718;4.630;2023-04-03T02:03:56;1.90;99.90
23873;DHT22;42884;50.718;4.630;2023-04-03T02:06:22;1.90;99.90
23873;DHT22;42884;50.718;4.630;2023-04-03T02:08:47;1.80;99.90
23873;DHT22;42884;50.718;4.630;2023-04-03T02:11:13;1.90;99.90
23873;DHT22;42884;50.718;4.630;2023-04-03T02:13:38;1.90;99.90
23873;DHT22;42884;50.718;4.630;2023-04-03T02:16:08;1.80;99.90
23873;DHT22;42884;50.718;4.630;2023-04-03T02:18:35;1.90;99.90
23873;DHT22;42884;50.718;4.630;2023-04-03T02:21:00;1.80;99.90
23873;DHT22;42884;50.718;4.630;2023-04-03T02:23:26;1.90;99.90
23873;DHT22;42884;50.718;4.630;2023-04-03T02:25:51;1.80;99.90
23873;DHT22;42884;50.718;4.630;2023-04-03T02:28:17;1.80;99.90
23873;DHT22;42884;50.718;4.630;2023-04-03T02:30:42;1.90;99.90
23873;DHT22;42884;50.718;4.630;2023-04-03T02:33:08;1.80;99.90
23873;DHT22;42884;50.718;4.630;2023-04-03T02:35:34;1.80;99.90
23873;DHT22;42884;50.718;4.630;2023-04-03T02:37:59;1.70;99.90
23873;DHT22;42884;50.718;4.630;2023-04-03T02:40:25;1.80;99.90
23873;DHT22;42884;50.718;4.630;2023-04-03T02:42:50;1.80;99.90
23873;DHT22;42884;50.718;4.630;2023-04-03T02:45:16;1.80;99.90
23873;DHT22;42884;50.718;4.630;2023-04-03T02:47:41;1.70;99.90
23873;DHT22;42884;50.718;4.630;2023-04-03T02:50:07;1.70;99.90
23873;DHT22;42884;50.718;4.630;2023-04-03T02:52:33;1.70;99.90
23873;DHT22;42884;50.718;4.630;2023-04-03T02:54:58;1.70;99.90
23873;DHT22;42884;50.718;4.630;2023-04-03T02:57:24;1.70;99.90
23873;DHT22;42884;50.718;4.630;2023-04-03T02:59:50;1.60;99.90
23873;DHT22;42884;50.718;4.630;2023-04-03T03:02:15;1.60;99.90
23873;DHT22;42884;50.718;4.630;2023-04-03T03:04:41;1.60;99.90
23873;DHT22;42884;50.718;4.630;2023-04-03T03:07:07;1.60;99.90
23873;DHT22;42884;50.718;4.630;2023-04-03T03:09:33;1.60;99.90
23873;DHT22;42884;50.718;4.630;2023-04-03T03:11:59;1.60;99.90
23873;DHT22;42884;50.718;4.630;2023-04-03T03:14:25;1.50;99.90
23873;DHT22;42884;50.718;4.630;2023-04-03T03:16:50;1.60;99.90
23873;DHT22;42884;50.718;4.630;2023-04-03T03:19:16;1.50;99.90
23873;DHT22;42884;50.718;4.630;2023-04-03T03:21:42;1.50;99.90
23873;DHT22;42884;50.718;4.630;2023-04-03T03:24:08;1.50;99.90
23873;DHT22;42884;50.718;4.630;2023-04-03T03:26:33;1.50;99.90
23873;DHT22;42884;50.718;4.630;2023-04-03T03:28:59;1.50;99.90
23873;DHT22;42884;50.718;4.630;2023-04-03T03:31:24;1.40;99.90
23873;DHT22;42884;50.718;4.630;2023-04-03T03:33:50;1.40;99.90
23873;DHT22;42884;50.718;4.630;2023-04-03T03:36:16;1.40;99.90
23873;DHT22;42884;50.718;4.630;2023-04-03T03:38:41;1.40;99.90
23873;DHT22;42884;50.718;4.630;2023-04-03T03:41:07;1.40;99.90
23873;DHT22;42884;50.718;4.630;2023-04-03T03:43:32;1.30;99.90
23873;DHT22;42884;50.718;4.630;2023-04-03T03:45:58;1.40;99.90
23873;DHT22;42884;50.718;4.630;2023-04-03T03:48:24;1.30;99.90
23873;DHT22;42884;50.718;4.630;2023-04-03T03:50:49;1.30;99.90
23873;DHT22;42884;50.718;4.630;2023-04-03T03:53:15;1.30;99.90
23873;DHT22;42884;50.718;4.630;2023-04-03T03:55:41;1.30;99.90
23873;DHT22;42884;50.718;4.630;2023-04-03T03:58:07;1.30;99.90
23873;DHT22;42884;50.718;4.630;2023-04-03T04:00:32;1.20;99.90
23873;DHT22;42884;50.718;4.630;2023-04-03T04:02:58;1.20;99.90
23873;DHT22;42884;50.718;4.630;2023-04-03T04:05:24;1.30;99.90
23873;DHT22;42884;50.718;4.630;2023-04-03T04:07:49;1.30;99.90
23873;DHT22;42884;50.718;4.630;2023-04-03T04:10:15;1.20;99.90
23873;DHT22;42884;50.718;4.630;2023-04-03T04:12:40;1.20;99.90
23873;DHT22;42884;50.718;4.630;2023-04-03T04:15:06;1.30;99.90
23873;DHT22;42884;50.718;4.630;2023-04-03T04:17:32;1.20;99.90
23873;DHT22;42884;50.718;4.630;2023-04-03T04:19:57;1.20;99.90
23873;DHT22;42884;50.718;4.630;2023-04-03T04:22:23;1.30;99.90
23873;DHT22;42884;50.718;4.630;2023-04-03T04:24:48;1.20;99.90
23873;DHT22;42884;50.718;4.630;2023-04-03T04:27:14;1.20;99.90
23873;DHT22;42884;50.718;4.630;2023-04-03T04:29:41;1.20;99.90
23873;DHT22;42884;50.718;4.630;2023-04-03T04:32:06;1.20;99.90
23873;DHT22;42884;50.718;4.630;2023-04-03T04:34:32;1.20;99.90
23873;DHT22;42884;50.718;4.630;2023-04-03T04:36:57;1.20;99.90
23873;DHT22;42884;50.718;4.630;2023-04-03T04:39:23;1.20;99.90
23873;DHT22;42884;50.718;4.630;2023-04-03T04:41:49;1.10;99.90
23873;DHT22;42884;50.718;4.630;2023-04-03T04:44:14;1.10;99.90
23873;DHT22;42884;50.718;4.630;2023-04-03T04:46:40;1.20;99.90
23873;DHT22;42884;50.718;4.630;2023-04-03T04:49:06;1.10;99.90
23873;DHT22;42884;50.718;4.630;2023-04-03T04:51:31;1.10;99.90
23873;DHT22;42884;50.718;4.630;2023-04-03T04:53:57;1.20;99.90
23873;DHT22;42884;50.718;4.630;2023-04-03T04:56:22;1.10;99.90
23873;DHT22;42884;50.718;4.630;2023-04-03T04:58:48;1.10;99.90
23873;DHT22;42884;50.718;4.630;2023-04-03T05:01:14;1.00;99.90
23873;DHT22;42884;50.718;4.630;2023-04-03T05:03:39;1.00;99.90
23873;DHT22;42884;50.718;4.630;2023-04-03T05:06:05;1.10;99.90
23873;DHT22;42884;50.718;4.630;2023-04-03T05:08:31;1.00;99.90
23873;DHT22;42884;50.718;4.630;2023-04-03T05:10:56;1.00;99.90
23873;DHT22;42884;50.718;4.630;2023-04-03T05:13:22;1.00;99.90
23873;DHT22;42884;50.718;4.630;2023-04-03T05:15:48;1.10;99.90
23873;DHT22;42884;50.718;4.630;2023-04-03T05:18:13;1.00;99.90
23873;DHT22;42884;50.718;4.630;2023-04-03T05:20:39;1.20;99.90
23873;DHT22;42884;50.718;4.630;2023-04-03T05:23:05;1.00;99.90
23873;DHT22;42884;50.718;4.630;2023-04-03T05:25:30;1.10;99.90
23873;DHT22;42884;50.718;4.630;2023-04-03T05:27:56;1.00;99.90
23873;DHT22;42884;50.718;4.630;2023-04-03T05:30:22;1.10;99.90
23873;DHT22;42884;50.718;4.630;2023-04-03T05:32:47;1.10;99.90
23873;DHT22;42884;50.718;4.630;2023-04-03T05:35:13;1.10;99.90
23873;DHT22;42884;50.718;4.630;2023-04-03T05:37:38;1.10;99.90
23873;DHT22;42884;50.718;4.630;2023-04-03T05:40:04;1.10;99.90
23873;DHT22;42884;50.718;4.630;2023-04-03T05:42:30;1.10;99.90
23873;DHT22;42884;50.718;4.630;2023-04-03T05:44:56;1.00;99.90
23873;DHT22;42884;50.718;4.630;2023-04-03T05:47:21;1.10;99.90
23873;DHT22;42884;50.718;4.630;2023-04-03T05:49:47;1.20;99.90
23873;DHT22;42884;50.718;4.630;2023-04-03T05:52:26;1.20;99.90
23873;DHT22;42884;50.718;4.630;2023-04-03T05:54:51;1.20;99.90
23873;DHT22;42884;50.718;4.630;2023-04-03T05:57:17;1.20;99.90
23873;DHT22;42884;50.718;4.630;2023-04-03T05:59:43;1.20;99.90
23873;DHT22;42884;50.718;4.630;2023-04-03T06:02:13;1.20;99.90
23873;DHT22;42884;50.718;4.630;2023-04-03T06:04:39;1.30;99.90
23873;DHT22;42884;50.718;4.630;2023-04-03T06:07:05;1.30;99.90
23873;DHT22;42884;50.718;4.630;2023-04-03T06:09:30;1.40;99.90
23873;DHT22;42884;50.718;4.630;2023-04-03T06:11:57;1.40;99.90
23873;DHT22;42884;50.718;4.630;2023-04-03T06:14:26;1.50;99.90
23873;DHT22;42884;50.718;4.630;2023-04-03T06:16:52;1.50;99.90
23873;DHT22;42884;50.718;4.630;2023-04-03T06:19:19;1.50;99.90
23873;DHT22;42884;50.718;4.630;2023-04-03T06:21:45;1.50;99.90
23873;DHT22;42884;50.718;4.630;2023-04-03T06:24:12;1.60;99.90
23873;DHT22;42884;50.718;4.630;2023-04-03T06:26:39;1.70;99.90
23873;DHT22;42884;50.718;4.630;2023-04-03T06:29:04;1.80;99.90
23873;DHT22;42884;50.718;4.630;2023-04-03T06:31:30;1.90;99.90
23873;DHT22;42884;50.718;4.630;2023-04-03T06:33:55;1.90;99.90
23873;DHT22;42884;50.718;4.630;2023-04-03T06:36:21;2.00;99.90
23873;DHT22;42884;50.718;4.630;2023-04-03T06:38:47;2.10;99.90
23873;DHT22;42884;50.718;4.630;2023-04-03T06:41:13;2.20;99.90
23873;DHT22;42884;50.718;4.630;2023-04-03T06:43:39;2.30;99.90
23873;DHT22;42884;50.718;4.630;2023-04-03T06:46:05;2.30;99.90
23873;DHT22;42884;50.718;4.630;2023-04-03T06:48:31;2.30;99.90
23873;DHT22;42884;50.718;4.630;2023-04-03T06:50:57;2.40;99.90
23873;DHT22;42884;50.718;4.630;2023-04-03T06:53:23;2.50;99.90
23873;DHT22;42884;50.718;4.630;2023-04-03T06:55:48;2.60;99.90
23873;DHT22;42884;50.718;4.630;2023-04-03T06:58:14;2.70;99.90
23873;DHT22;42884;50.718;4.630;2023-04-03T07:00:40;2.70;99.90
23873;DHT22;42884;50.718;4.630;2023-04-03T07:03:06;2.80;99.90
23873;DHT22;42884;50.718;4.630;2023-04-03T07:05:32;3.00;99.90
23873;DHT22;42884;50.718;4.630;2023-04-03T07:07:57;3.10;99.90
23873;DHT22;42884;50.718;4.630;2023-04-03T07:10:23;3.10;99.90
23873;DHT22;42884;50.718;4.630;2023-04-03T07:12:48;3.30;99.90
23873;DHT22;42884;50.718;4.630;2023-04-03T07:15:14;3.30;99.90
23873;DHT22;42884;50.718;4.630;2023-04-03T07:17:40;3.40;99.90
23873;DHT22;42884;50.718;4.630;2023-04-03T07:20:06;3.60;99.90
23873;DHT22;42884;50.718;4.630;2023-04-03T07:22:32;3.60;99.90
23873;DHT22;42884;50.718;4.630;2023-04-03T07:24:58;3.70;99.90
23873;DHT22;42884;50.718;4.630;2023-04-03T07:27:24;3.80;99.90
23873;DHT22;42884;50.718;4.630;2023-04-03T07:29:50;3.90;99.90
23873;DHT22;42884;50.718;4.630;2023-04-03T07:32:16;3.90;99.90
23873;DHT22;42884;50.718;4.630;2023-04-03T07:34:41;4.10;99.90
23873;DHT22;42884;50.718;4.630;2023-04-03T07:37:07;4.20;99.90
23873;DHT22;42884;50.718;4.630;2023-04-03T07:39:34;4.40;99.90
23873;DHT22;42884;50.718;4.630;2023-04-03T07:42:00;4.50;99.90
23873;DHT22;42884;50.718;4.630;2023-04-03T07:44:26;4.60;99.90
23873;DHT22;42884;50.718;4.630;2023-04-03T07:46:51;4.70;99.90
23873;DHT22;42884;50.718;4.630;2023-04-03T07:49:17;4.70;99.90
23873;DHT22;42884;50.718;4.630;2023-04-03T07:51:43;4.90;99.90
23873;DHT22;42884;50.718;4.630;2023-04-03T07:54:09;5.00;99.90
23873;DHT22;42884;50.718;4.630;2023-04-03T07:56:35;5.20;99.90
23873;DHT22;42884;50.718;4.630;2023-04-03T07:59:01;5.50;99.90
23873;DHT22;42884;50.718;4.630;2023-04-03T08:01:26;5.60;99.90
23873;DHT22;42884;50.718;4.630;2023-04-03T08:03:52;5.60;99.90
23873;DHT22;42884;50.718;4.630;2023-04-03T08:06:18;5.80;99.90
23873;DHT22;42884;50.718;4.630;2023-04-03T08:08:44;5.70;99.90
23873;DHT22;42884;50.718;4.630;2023-04-03T08:11:10;5.90;99.90
23873;DHT22;42884;50.718;4.630;2023-04-03T08:13:35;6.10;99.90
23873;DHT22;42884;50.718;4.630;2023-04-03T08:18:54;6.50;99.90
23873;DHT22;42884;50.718;4.630;2023-04-03T08:21:20;6.70;99.90
23873;DHT22;42884;50.718;4.630;2023-04-03T08:23:47;6.60;99.90
23873;DHT22;42884;50.718;4.630;2023-04-03T08:26:14;6.60;99.90
23873;DHT22;42884;50.718;4.630;2023-04-03T08:28:39;6.90;99.90
23873;DHT22;42884;50.718;4.630;2023-04-03T08:31:06;7.00;99.90
23873;DHT22;42884;50.718;4.630;2023-04-03T08:33:33;7.10;99.90
23873;DHT22;42884;50.718;4.630;2023-04-03T08:35:58;7.10;99.90
23873;DHT22;42884;50.718;4.630;2023-04-03T08:38:25;7.40;99.90
23873;DHT22;42884;50.718;4.630;2023-04-03T08:41:01;7.50;99.90
23873;DHT22;42884;50.718;4.630;2023-04-03T08:43:54;7.80;99.90
23873;DHT22;42884;50.718;4.630;2023-04-03T08:46:14;8.20;99.90
23873;DHT22;42884;50.718;4.630;2023-04-03T08:48:42;8.80;99.90
23873;DHT22;42884;50.718;4.630;2023-04-03T08:51:13;9.60;99.90
23873;DHT22;42884;50.718;4.630;2023-04-03T08:53:42;10.30;99.90
23873;DHT22;42884;50.718;4.630;2023-04-03T08:56:09;11.10;99.90
23873;DHT22;42884;50.718;4.630;2023-04-03T08:58:42;11.90;99.90
23873;DHT22;42884;50.718;4.630;2023-04-03T09:01:21;12.80;99.90
23873;DHT22;42884;50.718;4.630;2023-04-03T09:03:48;13.10;99.90
23873;DHT22;42884;50.718;4.630;2023-04-03T09:06:25;13.20;99.90
23873;DHT22;42884;50.718;4.630;2023-04-03T09:14:20;14.90;99.90
23873;DHT22;42884;50.718;4.630;2023-04-03T09:16:53;15.70;99.90
23873;DHT22;42884;50.718;4.630;2023-04-03T09:21:46;16.80;99.90
23873;DHT22;42884;50.718;4.630;2023-04-03T09:24:15;17.10;99.90
23873;DHT22;42884;50.718;4.630;2023-04-03T09:29:10;17.50;99.90
23873;DHT22;42884;50.718;4.630;2023-04-03T09:31:40;17.10;99.90
23873;DHT22;42884;50.718;4.630;2023-04-03T09:34:15;16.30;99.90
23873;DHT22;42884;50.718;4.630;2023-04-03T09:36:47;15.30;99.90
23873;DHT22;42884;50.718;4.630;2023-04-03T09:39:17;15.00;99.90
23873;DHT22;42884;50.718;4.630;2023-04-03T09:41:54;15.10;99.90
23873;DHT22;42884;50.718;4.630;2023-04-03T09:44:21;15.50;99.90
23873;DHT22;42884;50.718;4.630;2023-04-03T09:46:48;16.10;99.90
23873;DHT22;42884;50.718;4.630;2023-04-03T09:49:14;16.10;99.90
23873;DHT22;42884;50.718;4.630;2023-04-03T09:51:40;16.10;99.90
23873;DHT22;42884;50.718;4.630;2023-04-03T09:56:51;16.60;99.90
23873;DHT22;42884;50.718;4.630;2023-04-03T09:59:18;16.80;99.90
23873;DHT22;42884;50.718;4.630;2023-04-03T10:01:56;17.70;99.90
23873;DHT22;42884;50.718;4.630;2023-04-03T10:04:22;18.00;99.90
23873;DHT22;42884;50.718;4.630;2023-04-03T10:06:52;18.40;99.90
23873;DHT22;42884;50.718;4.630;2023-04-03T10:12:06;18.30;98.20
23873;DHT22;42884;50.718;4.630;2023-04-03T10:14:33;17.60;98.10
23873;DHT22;42884;50.718;4.630;2023-04-03T10:17:03;17.20;99.90
23873;DHT22;42884;50.718;4.630;2023-04-03T10:21:59;17.30;99.00
23873;DHT22;42884;50.718;4.630;2023-04-03T10:34:43;17.80;97.70
23873;DHT22;42884;50.718;4.630;2023-04-03T10:42:33;18.20;98.00
23873;DHT22;42884;50.718;4.630;2023-04-03T10:47:52;18.90;98.30
23873;DHT22;42884;50.718;4.630;2023-04-03T10:55:46;19.00;95.80
23873;DHT22;42884;50.718;4.630;2023-04-03T10:58:24;19.10;94.40
23873;DHT22;42884;50.718;4.630;2023-04-03T11:00:52;18.60;95.20
23873;DHT22;42884;50.718;4.630;2023-04-03T11:05:49;18.70;96.00
23873;DHT22;42884;50.718;4.630;2023-04-03T11:10:46;18.10;94.80
23873;DHT22;42884;50.718;4.630;2023-04-03T11:13:24;17.50;93.70
23873;DHT22;42884;50.718;4.630;2023-04-03T11:15:52;17.60;93.40
23873;DHT22;42884;50.718;4.630;2023-04-03T11:18:22;17.80;94.40
23873;DHT22;42884;50.718;4.630;2023-04-03T11:21:12;18.40;95.30
23873;DHT22;42884;50.718;4.630;2023-04-03T11:23:38;18.40;91.80
23873;DHT22;42884;50.718;4.630;2023-04-03T11:26:12;17.80;93.60
23873;DHT22;42884;50.718;4.630;2023-04-03T11:28:38;17.20;92.20
23873;DHT22;42884;50.718;4.630;2023-04-03T11:33:58;18.10;96.40
23873;DHT22;42884;50.718;4.630;2023-04-03T11:36:29;18.80;95.30
23873;DHT22;42884;50.718;4.630;2023-04-03T11:39:00;19.60;93.30
23873;DHT22;42884;50.718;4.630;2023-04-03T11:41:31;19.10;91.20
23873;DHT22;42884;50.718;4.630;2023-04-03T11:44:01;19.60;93.60
23873;DHT22;42884;50.718;4.630;2023-04-03T11:51:55;18.10;90.80
23873;DHT22;42884;50.718;4.630;2023-04-03T12:02:49;19.40;92.40
23873;DHT22;42884;50.718;4.630;2023-04-03T12:05:26;19.10;92.70
23873;DHT22;42884;50.718;4.630;2023-04-03T12:10:38;18.60;93.70
23873;DHT22;42884;50.718;4.630;2023-04-03T12:13:12;18.90;91.70
23873;DHT22;42884;50.718;4.630;2023-04-03T12:15:49;18.60;85.40
23873;DHT22;42884;50.718;4.630;2023-04-03T12:20:59;18.20;90.40
23873;DHT22;42884;50.718;4.630;2023-04-03T12:23:27;18.10;85.90
23873;DHT22;42884;50.718;4.630;2023-04-03T12:25:59;18.40;90.00
23873;DHT22;42884;50.718;4.630;2023-04-03T12:28:26;18.20;82.90
23873;DHT22;42884;50.718;4.630;2023-04-03T12:30:52;17.80;83.30
23873;DHT22;42884;50.718;4.630;2023-04-03T12:48:54;16.80;85.00
23873;DHT22;42884;50.718;4.630;2023-04-03T12:51:22;17.30;88.90
23873;DHT22;42884;50.718;4.630;2023-04-03T12:53:54;18.30;85.20
23873;DHT22;42884;50.718;4.630;2023-04-03T12:56:23;18.10;80.80
23873;DHT22;42884;50.718;4.630;2023-04-03T12:58:50;18.30;84.10
23873;DHT22;42884;50.718;4.630;2023-04-03T13:01:17;18.70;83.10
23873;DHT22;42884;50.718;4.630;2023-04-03T13:03:44;19.10;78.10
23873;DHT22;42884;50.718;4.630;2023-04-03T13:06:14;19.50;82.30
23873;DHT22;42884;50.718;4.630;2023-04-03T13:08:49;19.00;78.20
23873;DHT22;42884;50.718;4.630;2023-04-03T13:11:15;18.80;80.20
23873;DHT22;42884;50.718;4.630;2023-04-03T13:13:53;18.70;77.90
23873;DHT22;42884;50.718;4.630;2023-04-03T13:16:20;18.70;82.70
23873;DHT22;42884;50.718;4.630;2023-04-03T13:18:49;18.20;80.50
23873;DHT22;42884;50.718;4.630;2023-04-03T13:21:17;18.30;78.90
23873;DHT22;42884;50.718;4.630;2023-04-03T13:23:45;18.40;83.30
23873;DHT22;42884;50.718;4.630;2023-04-03T13:26:11;18.10;77.40
23873;DHT22;42884;50.718;4.630;2023-04-03T13:28:38;17.90;88.10
23873;DHT22;42884;50.718;4.630;2023-04-03T13:33:36;18.60;85.30
23873;DHT22;42884;50.718;4.630;2023-04-03T13:36:09;19.20;83.30
23873;DHT22;42884;50.718;4.630;2023-04-03T13:38:38;19.70;80.70
23873;DHT22;42884;50.718;4.630;2023-04-03T13:41:05;19.50;72.80
23873;DHT22;42884;50.718;4.630;2023-04-03T13:43:35;19.60;76.90
23873;DHT22;42884;50.718;4.630;2023-04-03T13:48:37;19.10;84.10
23873;DHT22;42884;50.718;4.630;2023-04-03T13:51:13;18.90;79.30
23873;DHT22;42884;50.718;4.630;2023-04-03T13:53:43;18.70;84.10
23873;DHT22;42884;50.718;4.630;2023-04-03T13:56:16;18.40;79.50
23873;DHT22;42884;50.718;4.630;2023-04-03T13:58:51;18.00;76.20
23873;DHT22;42884;50.718;4.630;2023-04-03T14:01:18;18.00;81.70
23873;DHT22;42884;50.718;4.630;2023-04-03T14:03:47;17.70;77.10
23873;DHT22;42884;50.718;4.630;2023-04-03T14:06:16;18.00;80.50
23873;DHT22;42884;50.718;4.630;2023-04-03T14:08:43;18.40;83.40
23873;DHT22;42884;50.718;4.630;2023-04-03T14:11:11;18.60;78.10
23873;DHT22;42884;50.718;4.630;2023-04-03T14:13:37;17.60;79.50
23873;DHT22;42884;50.718;4.630;2023-04-03T14:16:03;17.40;83.10
23873;DHT22;42884;50.718;4.630;2023-04-03T14:18:29;17.20;85.50
23873;DHT22;42884;50.718;4.630;2023-04-03T14:20:54;17.20;78.40
23873;DHT22;42884;50.718;4.630;2023-04-03T14:23:20;17.10;85.40
23873;DHT22;42884;50.718;4.630;2023-04-03T14:25:46;17.20;81.20
23873;DHT22;42884;50.718;4.630;2023-04-03T14:28:19;16.60;79.60
23873;DHT22;42884;50.718;4.630;2023-04-03T14:30:46;16.30;81.70
23873;DHT22;42884;50.718;4.630;2023-04-03T14:33:13;16.70;78.80
23873;DHT22;42884;50.718;4.630;2023-04-03T14:35:39;16.30;77.10
23873;DHT22;42884;50.718;4.630;2023-04-03T14:38:11;16.50;83.70
23873;DHT22;42884;50.718;4.630;2023-04-03T14:40:38;16.40;79.00
23873;DHT22;42884;50.718;4.630;2023-04-03T14:43:05;16.20;80.60
23873;DHT22;42884;50.718;4.630;2023-04-03T14:45:31;15.80;80.90
23873;DHT22;42884;50.718;4.630;2023-04-03T14:47:56;16.00;83.10
23873;DHT22;42884;50.718;4.630;2023-04-03T14:50:24;16.00;83.40
23873;DHT22;42884;50.718;4.630;2023-04-03T14:52:52;16.50;86.20
23873;DHT22;42884;50.718;4.630;2023-04-03T14:55:20;16.30;80.60
23873;DHT22;42884;50.718;4.630;2023-04-03T14:57:46;16.40;84.30
23873;DHT22;42884;50.718;4.630;2023-04-03T15:00:13;16.40;80.50
23873;DHT22;42884;50.718;4.630;2023-04-03T15:02:39;16.40;79.40
23873;DHT22;42884;50.718;4.630;2023-04-03T15:05:06;16.40;79.10
23873;DHT22;42884;50.718;4.630;2023-04-03T15:07:34;16.20;82.30
23873;DHT22;42884;50.718;4.630;2023-04-03T15:10:09;15.70;81.70
23873;DHT22;42884;50.718;4.630;2023-04-03T15:12:39;15.60;86.60
23873;DHT22;42884;50.718;4.630;2023-04-03T15:15:04;16.00;85.50
23873;DHT22;42884;50.718;4.630;2023-04-03T15:17:30;15.80;82.20
23873;DHT22;42884;50.718;4.630;2023-04-03T15:19:56;15.40;82.90
23873;DHT22;42884;50.718;4.630;2023-04-03T15:22:21;15.40;87.60
23873;DHT22;42884;50.718;4.630;2023-04-03T15:24:47;15.20;82.80
23873;DHT22;42884;50.718;4.630;2023-04-03T15:27:13;15.50;88.40
23873;DHT22;42884;50.718;4.630;2023-04-03T15:29:39;15.60;89.40
23873;DHT22;42884;50.718;4.630;2023-04-03T15:32:05;16.00;86.40
23873;DHT22;42884;50.718;4.630;2023-04-03T15:34:30;15.90;87.40
23873;DHT22;42884;50.718;4.630;2023-04-03T15:36:56;16.00;87.90
23873;DHT22;42884;50.718;4.630;2023-04-03T15:39:22;15.70;85.30
23873;DHT22;42884;50.718;4.630;2023-04-03T15:41:48;15.80;87.70
23873;DHT22;42884;50.718;4.630;2023-04-03T15:44:14;15.70;89.30
23873;DHT22;42884;50.718;4.630;2023-04-03T15:46:43;15.60;85.10
23873;DHT22;42884;50.718;4.630;2023-04-03T15:49:08;15.10;82.50
23873;DHT22;42884;50.718;4.630;2023-04-03T15:51:34;15.00;87.30
23873;DHT22;42884;50.718;4.630;2023-04-03T15:54:00;14.90;84.90
23873;DHT22;42884;50.718;4.630;2023-04-03T15:56:26;15.20;86.20
23873;DHT22;42884;50.718;4.630;2023-04-03T15:58:51;15.10;86.80
23873;DHT22;42884;50.718;4.630;2023-04-03T16:01:17;14.50;86.70
23873;DHT22;42884;50.718;4.630;2023-04-03T16:03:43;14.10;84.10
23873;DHT22;42884;50.718;4.630;2023-04-03T16:06:13;13.80;85.30
23873;DHT22;42884;50.718;4.630;2023-04-03T16:08:39;13.80;87.90
23873;DHT22;42884;50.718;4.630;2023-04-03T16:11:05;13.90;87.70
23873;DHT22;42884;50.718;4.630;2023-04-03T16:13:31;13.60;87.20
23873;DHT22;42884;50.718;4.630;2023-04-03T16:15:58;13.70;88.90
23873;DHT22;42884;50.718;4.630;2023-04-03T16:18:23;13.40;87.10
23873;DHT22;42884;50.718;4.630;2023-04-03T16:20:49;13.80;90.10
23873;DHT22;42884;50.718;4.630;2023-04-03T16:23:15;13.80;86.00
23873;DHT22;42884;50.718;4.630;2023-04-03T16:25:40;14.00;90.20
23873;DHT22;42884;50.718;4.630;2023-04-03T16:28:11;14.10;90.10
23873;DHT22;42884;50.718;4.630;2023-04-03T16:30:36;14.10;89.40
23873;DHT22;42884;50.718;4.630;2023-04-03T16:33:02;14.20;87.00
23873;DHT22;42884;50.718;4.630;2023-04-03T16:35:28;14.10;85.60
23873;DHT22;42884;50.718;4.630;2023-04-03T16:37:53;13.70;89.30
23873;DHT22;42884;50.718;4.630;2023-04-03T16:40:19;13.70;88.30
23873;DHT22;42884;50.718;4.630;2023-04-03T16:42:45;13.80;90.00
23873;DHT22;42884;50.718;4.630;2023-04-03T16:45:11;13.60;87.30
23873;DHT22;42884;50.718;4.630;2023-04-03T16:47:36;13.10;89.70
23873;DHT22;42884;50.718;4.630;2023-04-03T16:50:02;13.30;89.30
23873;DHT22;42884;50.718;4.630;2023-04-03T16:52:28;13.50;86.40
23873;DHT22;42884;50.718;4.630;2023-04-03T16:54:53;13.40;88.70
23873;DHT22;42884;50.718;4.630;2023-04-03T16:57:21;13.30;88.30
23873;DHT22;42884;50.718;4.630;2023-04-03T16:59:47;13.20;90.20
23873;DHT22;42884;50.718;4.630;2023-04-03T17:02:12;13.30;89.30
23873;DHT22;42884;50.718;4.630;2023-04-03T17:04:38;13.00;90.10
23873;DHT22;42884;50.718;4.630;2023-04-03T17:07:03;12.90;90.20
23873;DHT22;42884;50.718;4.630;2023-04-03T17:09:32;13.20;88.50
23873;DHT22;42884;50.718;4.630;2023-04-03T17:11:57;12.80;90.00
23873;DHT22;42884;50.718;4.630;2023-04-03T17:14:23;12.70;90.20